createdAt,value
2022-10-19T00:00:15.849Z,98102.48
2022-10-19T00:02:46.241Z,98108.09
2022-10-19T00:05:19.438Z,98106.95
2022-10-19T00:07:53.167Z,98100.59
2022-10-19T00:10:26.920Z,98095.08
2022-10-19T00:12:56.523Z,98098.27
2022-10-19T00:15:29.172Z,98089.36
2022-10-19T00:17:57.791Z,98086.97
2022-10-19T00:20:38.583Z,98083.50
2022-10-19T00:23:10.855Z,98087.56
2022-10-19T00:25:42.088Z,98087.43
2022-10-19T00:28:20.469Z,98097.17
2022-10-19T00:33:20.422Z,98095.37
2022-10-19T00:35:51.836Z,98093.02
2022-10-19T00:38:20.343Z,98092.23
2022-10-19T00:40:48.084Z,98083.67
2022-10-19T00:43:18.500Z,98078.09
2022-10-19T00:45:45.720Z,98078.80
2022-10-19T00:48:15.718Z,98078.11
2022-10-19T00:50:43.938Z,98076.30
2022-10-19T00:53:11.639Z,98074.78
2022-10-19T00:55:39.804Z,98075.89
2022-10-19T00:58:07.355Z,98073.29
2022-10-19T01:00:34.675Z,98073.98
2022-10-19T01:03:03.093Z,98066.88
2022-10-19T01:05:32.224Z,98069.95
2022-10-19T01:07:59.874Z,98058.72
2022-10-19T01:10:36.963Z,98059.92
2022-10-19T01:13:29.326Z,98059.74
2022-10-19T01:16:08.892Z,98055.55
2022-10-19T01:18:39.748Z,98058.03
2022-10-19T01:21:13.297Z,98050.79
2022-10-19T01:24:02.725Z,98048.42
2022-10-19T01:26:42.451Z,98046.62
2022-10-19T01:29:22.430Z,98041.00
2022-10-19T01:32:05.715Z,98044.25
2022-10-19T01:34:48.206Z,98040.81
2022-10-19T01:37:25.091Z,98040.59
2022-10-19T01:40:04.583Z,98041.73
2022-10-19T01:42:35.455Z,98040.13
2022-10-19T01:45:08.932Z,98028.05
2022-10-19T01:47:45.539Z,98033.48
2022-10-19T01:50:16.110Z,98038.02
2022-10-19T01:52:43.589Z,98035.59
2022-10-19T01:55:12.700Z,98039.09
2022-10-19T01:57:42.728Z,98039.89
2022-10-19T02:00:12.020Z,98035.32
2022-10-19T02:02:41.946Z,98035.13
2022-10-19T02:05:11.325Z,98037.86
2022-10-19T02:07:40.888Z,98032.27
2022-10-19T02:10:08.818Z,98025.86
2022-10-19T02:12:36.998Z,98028.89
2022-10-19T02:15:08.148Z,98027.86
2022-10-19T02:17:38.790Z,98022.55
2022-10-19T02:20:06.306Z,98019.61
2022-10-19T02:22:33.972Z,98024.53
2022-10-19T02:25:02.862Z,98030.20
2022-10-19T02:27:30.262Z,98033.75
2022-10-19T02:29:57.451Z,98035.97
2022-10-19T02:32:26.209Z,98024.44
2022-10-19T02:34:53.407Z,98022.67
2022-10-19T02:37:23.355Z,98029.73
2022-10-19T02:39:49.782Z,98032.75
2022-10-19T02:42:28.595Z,98029.03
2022-10-19T02:44:58.170Z,98037.69
2022-10-19T02:47:28.807Z,98036.66
2022-10-19T02:49:56.240Z,98032.94
2022-10-19T02:52:23.419Z,98030.31
2022-10-19T02:54:50.574Z,98041.66
2022-10-19T02:57:23.582Z,98046.26
2022-10-19T02:59:51.638Z,98035.23
2022-10-19T03:02:20.341Z,98029.32
2022-10-19T03:07:16.426Z,98028.50
2022-10-19T03:09:44.111Z,98018.78
2022-10-19T03:12:12.852Z,98020.61
2022-10-19T03:14:39.998Z,98025.17
2022-10-19T03:17:07.221Z,98031.34
2022-10-19T03:19:35.300Z,98033.71
2022-10-19T03:22:03.146Z,98031.77
2022-10-19T03:24:31.629Z,98030.70
2022-10-19T03:26:58.852Z,98034.98
2022-10-19T03:29:26.437Z,98029.07
2022-10-19T03:31:53.577Z,98034.73
2022-10-19T03:34:20.680Z,98025.86
2022-10-19T03:36:47.829Z,98037.20
2022-10-19T03:39:16.260Z,98031.59
2022-10-19T03:41:44.228Z,98029.52
2022-10-19T03:44:12.015Z,98023.90
2022-10-19T03:46:40.006Z,98017.48
2022-10-19T03:49:08.819Z,98026.95
2022-10-19T03:51:36.417Z,98031.30
2022-10-19T03:54:06.690Z,98027.58
2022-10-19T03:56:35.021Z,98031.36
2022-10-19T03:59:04.316Z,98028.19
2022-10-19T04:01:34.700Z,98023.36
2022-10-19T04:04:05.084Z,98016.94
2022-10-19T04:06:35.087Z,98022.89
2022-10-19T04:09:02.888Z,98018.61
2022-10-19T04:11:31.097Z,98011.65
2022-10-19T04:13:59.147Z,98018.13
2022-10-19T04:16:28.567Z,98020.27
2022-10-19T04:18:55.940Z,98022.42
2022-10-19T04:21:26.851Z,98017.88
2022-10-19T04:24:05.588Z,98011.97
2022-10-19T04:26:33.876Z,98010.94
2022-10-19T04:29:01.724Z,98022.79
2022-10-19T04:31:29.334Z,98019.06
2022-10-19T04:33:56.783Z,98009.41
2022-10-19T04:36:23.978Z,98010.25
2022-10-19T04:38:51.680Z,98011.06
2022-10-19T04:41:20.847Z,98002.48
2022-10-19T04:43:49.247Z,98005.73
2022-10-19T04:46:18.672Z,97998.72
2022-10-19T04:48:47.292Z,97995.78
2022-10-19T04:51:15.779Z,97994.97
2022-10-19T04:53:43.648Z,97987.16
2022-10-19T04:56:17.571Z,97985.27
2022-10-19T04:58:44.629Z,97979.89
2022-10-19T05:01:15.070Z,97989.85
2022-10-19T05:03:42.510Z,97985.25
2022-10-19T05:06:10.295Z,97980.92
2022-10-19T05:08:37.894Z,97983.05
2022-10-19T05:11:07.533Z,97984.62
2022-10-19T05:13:35.122Z,97987.55
2022-10-19T05:16:04.702Z,97989.13
2022-10-19T05:18:32.107Z,97989.09
2022-10-19T05:21:10.647Z,97993.41
2022-10-19T05:23:38.231Z,97990.16
2022-10-19T05:26:07.421Z,97987.48
2022-10-19T05:28:35.504Z,97995.00
2022-10-19T05:31:14.728Z,97992.02
2022-10-19T05:33:43.277Z,97985.58
2022-10-19T05:36:14.083Z,97983.39
2022-10-19T05:38:41.997Z,97976.34
2022-10-19T05:41:09.225Z,97985.45
2022-10-19T05:43:36.489Z,98003.96
2022-10-19T05:46:08.297Z,97994.52
2022-10-19T05:48:36.130Z,97998.24
2022-10-19T05:51:04.808Z,97988.52
2022-10-19T05:53:32.754Z,97993.59
2022-10-19T05:55:59.960Z,97996.76
2022-10-19T05:58:27.158Z,97993.74
2022-10-19T06:00:55.336Z,97990.98
2022-10-19T06:03:23.170Z,97990.06
2022-10-19T06:05:50.943Z,97986.95
2022-10-19T06:08:19.132Z,97983.50
2022-10-19T06:10:46.671Z,97979.75
2022-10-19T06:13:15.031Z,97983.02
2022-10-19T06:15:42.410Z,97990.33
2022-10-19T06:18:11.460Z,97996.28
2022-10-19T06:20:40.339Z,97992.50
2022-10-19T06:23:08.434Z,97992.23
2022-10-19T06:25:36.878Z,97989.55
2022-10-19T06:28:04.418Z,97990.61
2022-10-19T06:30:32.128Z,97985.52
2022-10-19T06:32:59.776Z,97992.77
2022-10-19T06:35:27.258Z,97983.28
2022-10-19T06:37:57.054Z,97976.57
2022-10-19T06:40:24.981Z,97980.66
2022-10-19T06:42:52.200Z,97983.68
2022-10-19T06:45:19.292Z,97984.91
2022-10-19T06:50:14.545Z,97980.20
2022-10-19T06:52:41.627Z,97980.53
2022-10-19T06:55:09.125Z,97976.77
2022-10-19T06:57:36.593Z,97982.43
2022-10-19T07:00:08.301Z,97984.10
2022-10-19T07:05:06.123Z,97978.12
2022-10-19T07:07:31.308Z,97977.23
2022-10-19T07:09:58.722Z,97984.59
2022-10-19T07:12:26.017Z,97978.91
2022-10-19T07:14:55.030Z,97976.73
2022-10-19T07:17:22.182Z,97975.83
2022-10-19T07:19:49.331Z,97971.59
2022-10-19T07:22:21.223Z,97971.23
2022-10-19T07:24:45.412Z,97955.22
2022-10-19T07:27:13.135Z,97965.67
2022-10-19T07:29:40.150Z,97964.66
2022-10-19T07:32:07.313Z,97968.67
2022-10-19T07:34:34.474Z,97969.63
2022-10-19T07:37:01.828Z,97967.88
2022-10-19T07:39:29.136Z,97966.30
2022-10-19T07:41:56.335Z,97967.09
2022-10-19T07:44:23.889Z,97962.00
2022-10-19T07:46:51.218Z,97969.08
2022-10-19T07:49:19.468Z,97970.61
2022-10-19T07:51:46.804Z,97961.34
2022-10-19T07:54:14.149Z,97963.19
2022-10-19T07:56:41.090Z,97970.93
2022-10-19T07:59:09.697Z,97975.69
2022-10-19T08:01:40.821Z,97974.27
2022-10-19T08:06:37.754Z,97963.42
2022-10-19T08:09:05.524Z,97965.01
2022-10-19T08:11:34.365Z,97953.47
2022-10-19T08:14:04.919Z,97953.53
2022-10-19T08:16:39.694Z,97950.37
2022-10-19T08:19:09.461Z,97942.37
2022-10-19T08:21:39.088Z,97943.95
2022-10-19T08:24:06.573Z,97938.49
2022-10-19T08:26:37.165Z,97935.68
2022-10-19T08:29:10.176Z,97938.08
2022-10-19T08:31:37.747Z,97938.86
2022-10-19T08:34:05.167Z,97932.79
2022-10-19T08:36:34.239Z,97932.38
2022-10-19T08:39:03.231Z,97932.52
2022-10-19T08:41:59.782Z,97933.84
2022-10-19T08:44:39.730Z,97927.06
2022-10-19T08:47:30.593Z,97912.95
2022-10-19T08:49:58.976Z,97910.97
2022-10-19T08:52:34.212Z,97910.64
2022-10-19T08:55:05.608Z,97912.39
2022-10-19T08:57:42.182Z,97907.89
2022-10-19T09:00:41.776Z,97909.81
2022-10-19T09:03:37.648Z,97906.64
2022-10-19T09:06:14.345Z,97910.23
2022-10-19T09:08:41.677Z,97898.48
2022-10-19T09:11:10.245Z,97901.41
2022-10-19T09:14:04.123Z,97904.58
2022-10-19T09:16:17.694Z,97910.72
2022-10-19T09:18:46.661Z,97906.64
2022-10-19T09:21:20.413Z,97908.45
2022-10-19T09:24:03.504Z,97908.38
2022-10-19T09:26:36.531Z,97907.38
2022-10-19T09:29:23.861Z,97904.23
2022-10-19T09:31:53.435Z,97899.51
2022-10-19T09:34:26.992Z,97896.08
2022-10-19T09:36:56.936Z,97883.82
2022-10-19T09:39:28.680Z,97885.13
2022-10-19T09:41:58.872Z,97880.82
2022-10-19T09:44:26.844Z,97884.11
2022-10-19T09:47:31.597Z,97886.45
2022-10-19T09:50:08.607Z,97891.69
2022-10-19T09:52:40.051Z,97887.22
2022-10-19T09:55:16.794Z,97881.83
2022-10-19T09:57:46.560Z,97878.70
2022-10-19T10:00:19.843Z,97881.95
2022-10-19T10:02:54.778Z,97875.56
2022-10-19T10:05:31.060Z,97873.26
2022-10-19T10:07:58.051Z,97874.45
2022-10-19T10:10:30.594Z,97867.81
2022-10-19T10:12:58.864Z,97866.14
2022-10-19T10:15:28.994Z,97868.45
2022-10-19T10:17:57.476Z,97866.22
2022-10-19T10:20:31.855Z,97870.76
2022-10-19T10:23:02.687Z,97869.21
2022-10-19T10:25:32.894Z,97865.93
2022-10-19T10:28:09.711Z,97855.36
2022-10-19T10:30:37.441Z,97864.45
2022-10-19T10:33:13.449Z,97864.66
2022-10-19T10:35:35.277Z,97858.99
2022-10-19T10:38:14.364Z,97859.43
2022-10-19T10:41:03.603Z,97856.27
2022-10-19T10:43:33.054Z,97855.00
2022-10-19T10:46:03.891Z,97855.36
2022-10-19T10:48:39.971Z,97856.94
2022-10-19T10:51:19.979Z,97843.66
2022-10-19T10:53:47.486Z,97848.65
2022-10-19T10:56:26.559Z,97839.80
2022-10-19T10:59:05.279Z,97835.84
2022-10-19T11:01:40.983Z,97834.88
2022-10-19T11:04:14.092Z,97832.39
2022-10-19T11:06:51.173Z,97825.36
2022-10-19T11:09:24.776Z,97824.66
2022-10-19T11:11:55.331Z,97829.69
2022-10-19T11:14:29.348Z,97828.12
2022-10-19T11:16:59.417Z,97830.61
2022-10-19T11:19:35.648Z,97825.38
2022-10-19T11:22:35.695Z,97828.31
2022-10-19T11:25:33.044Z,97821.42
2022-10-19T11:28:28.526Z,97824.03
2022-10-19T11:30:59.563Z,97825.14
2022-10-19T11:33:47.468Z,97820.95
2022-10-19T11:36:27.001Z,97816.77
2022-10-19T11:39:04.121Z,97814.47
2022-10-19T11:41:47.390Z,97809.02
2022-10-19T11:44:33.555Z,97803.25
2022-10-19T11:47:30.375Z,97802.67
2022-10-19T11:50:10.400Z,97798.02
2022-10-19T11:53:02.551Z,97791.06
2022-10-19T11:55:51.723Z,97783.35
2022-10-19T11:58:41.038Z,97784.95
2022-10-19T12:01:30.453Z,97779.27
2022-10-19T12:04:22.917Z,97790.38
2022-10-19T12:07:02.386Z,97781.98
2022-10-19T12:09:36.152Z,97771.09
2022-10-19T12:12:16.139Z,97760.87
2022-10-19T12:14:46.249Z,97765.66
2022-10-19T12:17:22.479Z,97765.44
2022-10-19T12:19:53.688Z,97759.09
2022-10-19T12:22:26.606Z,97750.91
2022-10-19T12:24:55.302Z,97741.38
2022-10-19T12:27:38.891Z,97747.05
2022-10-19T12:30:21.239Z,97742.74
2022-10-19T12:32:58.292Z,97741.34
2022-10-19T12:35:35.647Z,97743.63
2022-10-19T12:38:12.725Z,97740.66
2022-10-19T12:40:46.265Z,97732.73
2022-10-19T12:43:23.267Z,97733.52
2022-10-19T12:46:09.342Z,97735.00
2022-10-19T12:48:38.343Z,97736.03
2022-10-19T12:51:10.423Z,97732.06
2022-10-19T12:53:49.124Z,97733.88
2022-10-19T12:56:22.986Z,97731.48
2022-10-19T12:58:56.380Z,97735.23
2022-10-19T13:01:36.429Z,97739.10
2022-10-19T13:04:12.345Z,97734.33
2022-10-19T13:07:01.101Z,97739.77
2022-10-19T13:09:42.679Z,97736.83
2022-10-19T13:12:21.431Z,97732.05
2022-10-19T13:15:01.130Z,97732.05
2022-10-19T13:17:42.936Z,97735.02
2022-10-19T13:20:19.616Z,97736.81
2022-10-19T13:22:50.469Z,97733.88
2022-10-19T13:25:23.041Z,97727.86
2022-10-19T13:28:02.442Z,97733.42
2022-10-19T13:30:39.091Z,97730.03
2022-10-19T13:33:28.464Z,97737.17
2022-10-19T13:36:03.502Z,97735.23
2022-10-19T13:38:39.537Z,97733.52
2022-10-19T13:41:27.366Z,97728.77
2022-10-19T13:44:16.491Z,97728.88
2022-10-19T13:47:04.228Z,97730.25
2022-10-19T13:49:40.979Z,97733.98
2022-10-19T13:52:31.914Z,97732.05
2022-10-19T13:55:22.757Z,97733.66
2022-10-19T13:57:59.148Z,97731.38
2022-10-19T14:00:30.071Z,97732.95
2022-10-19T14:03:19.191Z,97734.09
2022-10-19T14:05:56.065Z,97735.23
2022-10-19T14:08:49.919Z,97732.52
2022-10-19T14:11:20.172Z,97731.38
2022-10-19T14:13:51.163Z,97729.22
2022-10-19T14:16:21.962Z,97732.52
2022-10-19T14:18:54.543Z,97729.32
2022-10-19T14:21:33.086Z,97731.96
2022-10-19T14:24:00.470Z,97728.66
2022-10-19T14:26:30.309Z,97729.67
2022-10-19T14:28:59.311Z,97732.18
2022-10-19T14:31:34.763Z,97723.32
2022-10-19T14:34:04.098Z,97727.07
2022-10-19T14:36:34.806Z,97730.47
2022-10-19T14:39:01.842Z,97718.43
2022-10-19T14:41:32.367Z,97719.25
2022-10-19T14:44:02.258Z,97715.39
2022-10-19T14:46:31.354Z,97716.97
2022-10-19T14:49:02.064Z,97710.73
2022-10-19T14:51:48.260Z,97720.05
2022-10-19T14:54:31.677Z,97721.41
2022-10-19T14:57:05.073Z,97714.34
2022-10-19T14:59:37.445Z,97715.05
2022-10-19T15:02:11.350Z,97721.39
2022-10-19T15:04:38.959Z,97715.51
2022-10-19T15:07:15.777Z,97712.09
2022-10-19T15:09:48.234Z,97714.13
2022-10-19T15:12:17.923Z,97717.77
2022-10-19T15:14:45.923Z,97720.25
2022-10-19T15:17:28.306Z,97718.44
2022-10-19T15:19:59.306Z,97718.22
2022-10-19T15:22:36.945Z,97721.84
2022-10-19T15:25:11.016Z,97711.97
2022-10-19T15:27:44.638Z,97706.63
2022-10-19T15:30:27.522Z,97706.41
2022-10-19T15:33:01.649Z,97706.53
2022-10-19T15:35:30.923Z,97710.15
2022-10-19T15:38:08.866Z,97704.80
2022-10-19T15:40:41.140Z,97702.53
2022-10-19T15:43:34.961Z,97704.14
2022-10-19T15:46:08.550Z,97705.83
2022-10-19T15:48:46.530Z,97708.80
2022-10-19T15:51:26.576Z,97710.95
2022-10-19T15:53:59.607Z,97714.11
2022-10-19T15:56:28.720Z,97716.60
2022-10-19T15:59:01.490Z,97718.44
2022-10-19T16:01:31.517Z,97717.52
2022-10-19T16:03:59.165Z,97713.33
2022-10-19T16:06:29.113Z,97708.67
2022-10-19T16:08:58.024Z,97709.37
2022-10-19T16:11:26.503Z,97717.31
2022-10-19T16:13:53.849Z,97719.56
2022-10-19T16:16:30.612Z,97721.84
2022-10-19T16:18:58.528Z,97722.95
2022-10-19T16:21:28.882Z,97720.46
2022-10-19T16:23:56.622Z,97723.31
2022-10-19T16:26:25.634Z,97724.30
2022-10-19T16:28:54.474Z,97720.67
2022-10-19T16:31:22.450Z,97727.70
2022-10-19T16:33:49.565Z,97727.70
2022-10-19T16:36:18.670Z,97734.69
2022-10-19T16:38:46.825Z,97743.55
2022-10-19T16:41:14.569Z,97745.56
2022-10-19T16:43:41.907Z,97741.93
2022-10-19T16:46:09.221Z,97749.17
2022-10-19T16:48:37.870Z,97755.27
2022-10-19T16:51:25.893Z,97754.34
2022-10-19T16:53:56.727Z,97752.61
2022-10-19T16:56:25.118Z,97749.53
2022-10-19T16:58:54.730Z,97752.12
2022-10-19T17:01:22.375Z,97754.70
2022-10-19T17:03:49.554Z,97763.28
2022-10-19T17:06:18.410Z,97757.92
2022-10-19T17:09:29.926Z,97758.44
2022-10-19T17:11:25.351Z,97765.89
2022-10-19T17:13:54.458Z,97756.81
2022-10-19T17:16:23.497Z,97763.72
2022-10-19T17:18:52.802Z,97766.30
2022-10-19T17:21:22.384Z,97769.89
2022-10-19T17:23:52.110Z,97773.73
2022-10-19T17:26:25.295Z,97777.11
2022-10-19T17:28:53.035Z,97775.95
2022-10-19T17:31:20.169Z,97768.23
2022-10-19T17:33:49.133Z,97765.94
2022-10-19T17:36:19.714Z,97774.96
2022-10-19T17:38:47.017Z,97770.21
2022-10-19T17:41:17.068Z,97776.06
2022-10-19T17:43:45.985Z,97766.98
2022-10-19T17:46:15.647Z,97773.63
2022-10-19T17:48:43.727Z,97778.49
2022-10-19T17:51:15.235Z,97773.06
2022-10-19T17:53:43.654Z,97781.20
2022-10-19T17:56:13.238Z,97792.78
2022-10-19T17:58:40.655Z,97792.52
2022-10-19T18:01:08.896Z,97794.70
2022-10-19T18:03:37.531Z,97796.29
2022-10-19T18:06:11.017Z,97795.95
2022-10-19T18:08:41.867Z,97792.59
2022-10-19T18:11:15.525Z,97791.14
2022-10-19T18:13:42.907Z,97795.11
2022-10-19T18:16:16.097Z,97796.69
2022-10-19T18:18:45.732Z,97792.88
2022-10-19T18:21:15.066Z,97793.10
2022-10-19T18:23:42.712Z,97796.52
2022-10-19T18:26:13.221Z,97793.95
2022-10-19T18:28:41.471Z,97795.98
2022-10-19T18:31:19.036Z,97801.34
2022-10-19T18:33:49.189Z,97803.83
2022-10-19T18:36:16.454Z,97797.45
2022-10-19T18:38:43.719Z,97789.48
2022-10-19T18:43:39.855Z,97789.64
2022-10-19T18:46:07.778Z,97794.59
2022-10-19T18:48:37.223Z,97788.45
2022-10-19T18:51:06.941Z,97787.91
2022-10-19T18:53:34.490Z,97778.49
2022-10-19T18:56:07.310Z,97787.06
2022-10-19T18:58:35.783Z,97793.63
2022-10-19T19:01:05.235Z,97799.21
2022-10-19T19:03:32.494Z,97795.33
2022-10-19T19:06:01.293Z,97797.52
2022-10-19T19:08:28.635Z,97816.14
2022-10-19T19:10:56.664Z,97816.64
2022-10-19T19:13:23.724Z,97820.02
2022-10-19T19:15:58.369Z,97826.50
2022-10-19T19:18:26.003Z,97826.91
2022-10-19T19:20:53.320Z,97822.35
2022-10-19T19:23:20.432Z,97814.85
2022-10-19T19:25:47.759Z,97809.12
2022-10-19T19:28:14.941Z,97802.74
2022-10-19T19:30:44.315Z,97815.36
2022-10-19T19:33:12.424Z,97823.67
2022-10-19T19:35:46.833Z,97831.32
2022-10-19T19:38:14.838Z,97835.23
2022-10-19T19:40:44.565Z,97838.84
2022-10-19T19:43:13.464Z,97838.91
2022-10-19T19:45:41.676Z,97841.63
2022-10-19T19:48:09.829Z,97842.98
2022-10-19T19:50:37.868Z,97842.98
2022-10-19T19:53:05.258Z,97841.05
2022-10-19T19:55:38.183Z,97826.86
2022-10-19T19:58:04.178Z,97839.45
2022-10-19T20:00:31.401Z,97841.87
2022-10-19T20:02:58.941Z,97839.95
2022-10-19T20:05:26.414Z,97847.42
2022-10-19T20:07:53.481Z,97835.94
2022-10-19T20:10:20.733Z,97839.37
2022-10-19T20:12:47.847Z,97846.61
2022-10-19T20:15:16.599Z,97854.11
2022-10-19T20:17:44.174Z,97849.17
2022-10-19T20:20:12.425Z,97853.70
2022-10-19T20:22:39.934Z,97849.22
2022-10-19T20:25:07.558Z,97849.00
2022-10-19T20:27:35.334Z,97856.42
2022-10-19T20:30:03.461Z,97864.96
2022-10-19T20:32:30.700Z,97854.28
2022-10-19T20:34:58.083Z,97850.39
2022-10-19T20:37:26.016Z,97857.64
2022-10-19T20:39:53.014Z,97854.55
2022-10-19T20:42:21.232Z,97854.72
2022-10-19T20:44:48.834Z,97852.41
2022-10-19T20:47:16.130Z,97861.17
2022-10-19T20:49:43.217Z,97858.63
2022-10-19T20:52:10.308Z,97860.52
2022-10-19T20:54:37.426Z,97855.43
2022-10-19T20:57:04.645Z,97859.89
2022-10-19T20:59:32.914Z,97855.98
2022-10-19T21:02:00.110Z,97857.01
2022-10-19T21:04:27.316Z,97857.41
2022-10-19T21:06:54.341Z,97852.37
2022-10-19T21:09:23.450Z,97858.98
2022-10-19T21:11:51.490Z,97859.61
2022-10-19T21:14:27.091Z,97860.66
2022-10-19T21:16:56.035Z,97861.75
2022-10-19T21:19:24.842Z,97873.55
2022-10-19T21:21:58.019Z,97871.05
2022-10-19T21:24:28.835Z,97865.70
2022-10-19T21:26:56.181Z,97862.09
2022-10-19T21:29:23.176Z,97869.95
2022-10-19T21:31:52.577Z,97871.42
2022-10-19T21:34:23.462Z,97871.57
2022-10-19T21:36:51.374Z,97867.52
2022-10-19T21:39:19.192Z,97863.22
2022-10-19T21:41:46.664Z,97870.22
2022-10-19T21:44:15.240Z,97877.08
2022-10-19T21:46:43.028Z,97873.81
2022-10-19T21:49:11.776Z,97871.81
2022-10-19T21:51:47.555Z,97872.78
2022-10-19T21:54:17.117Z,97873.52
2022-10-19T21:56:44.944Z,97872.90
2022-10-19T21:59:12.422Z,97870.42
2022-10-19T22:01:41.546Z,97867.16
2022-10-19T22:04:12.023Z,97868.33
2022-10-19T22:06:39.631Z,97873.55
2022-10-19T22:09:09.490Z,97870.52
2022-10-19T22:11:36.792Z,97876.33
2022-10-19T22:14:04.645Z,97880.45
2022-10-19T22:16:32.941Z,97885.62
2022-10-19T22:19:00.493Z,97885.15
2022-10-19T22:21:31.915Z,97884.88
2022-10-19T22:24:04.819Z,97891.36
2022-10-19T22:26:34.683Z,97889.02
2022-10-19T22:29:03.599Z,97891.78
2022-10-19T22:31:32.044Z,97891.31
2022-10-19T22:34:08.503Z,97884.05
2022-10-19T22:36:35.568Z,97885.48
2022-10-19T22:39:03.012Z,97886.70
2022-10-19T22:41:30.049Z,97890.95
2022-10-19T22:43:57.150Z,97888.80
2022-10-19T22:46:24.385Z,97898.08
2022-10-19T22:48:51.395Z,97896.25
2022-10-19T22:51:18.475Z,97905.58
2022-10-19T22:53:45.450Z,97905.28
2022-10-19T22:56:12.950Z,97903.35
2022-10-19T22:58:39.954Z,97915.52
2022-10-19T23:01:10.291Z,97907.63
2022-10-19T23:03:40.519Z,97913.52
2022-10-19T23:06:09.440Z,97907.16
2022-10-19T23:08:36.868Z,97910.53
2022-10-19T23:11:04.034Z,97910.89
2022-10-19T23:13:31.065Z,97907.67
2022-10-19T23:15:58.138Z,97912.59
2022-10-19T23:18:25.195Z,97918.59
2022-10-19T23:20:54.965Z,97913.90
2022-10-19T23:23:22.431Z,97921.91
2022-10-19T23:26:05.391Z,97926.66
2022-10-19T23:28:33.875Z,97938.11
2022-10-19T23:31:23.444Z,97933.89
2022-10-19T23:33:51.246Z,97936.95
2022-10-19T23:36:20.844Z,97945.39
2022-10-19T23:38:49.628Z,97947.64
2022-10-19T23:41:18.218Z,97947.49
2022-10-19T23:43:45.491Z,97959.73
2022-10-19T23:46:13.370Z,97948.00
2022-10-19T23:48:41.412Z,97959.98
2022-10-19T23:51:13.916Z,97955.76
2022-10-19T23:53:42.315Z,97956.16
2022-10-19T23:56:12.945Z,97962.66
2022-10-19T23:58:40.464Z,97957.29
